sensor_id;sensor_type;location;lat;lon;timestamp;temperature;humidity
40323;DHT22;26030;51.164;17.100;2023-05-10T00:04:58;23.40;57.50
40323;DHT22;26030;51.164;17.100;2023-05-10T00:10:02;23.40;57.60
40323;DHT22;26030;51.164;17.100;2023-05-10T00:15:08;23.40;57.20
40323;DHT22;26030;51.164;17.100;2023-05-10T00:20:13;23.50;57.20
40323;DHT22;26030;51.164;17.100;2023-05-10T00:25:18;23.50;56.90
40323;DHT22;26030;51.164;17.100;2023-05-10T00:30:22;23.60;57.00
40323;DHT22;26030;51.164;17.100;2023-05-10T00:35:27;23.60;56.70
40323;DHT22;26030;51.164;17.100;2023-05-10T00:40:31;23.60;56.80
40323;DHT22;26030;51.164;17.100;2023-05-10T00:45:38;23.60;56.90
40323;DHT22;26030;51.164;17.100;2023-05-10T00:50:45;23.50;56.80
40323;DHT22;26030;51.164;17.100;2023-05-10T00:55:49;23.60;56.50
40323;DHT22;26030;51.164;17.100;2023-05-10T01:00:55;23.60;56.50
40323;DHT22;26030;51.164;17.100;2023-05-10T01:06:02;23.70;55.70
40323;DHT22;26030;51.164;17.100;2023-05-10T01:11:06;23.60;55.70
40323;DHT22;26030;51.164;17.100;2023-05-10T01:16:11;23.60;55.80
40323;DHT22;26030;51.164;17.100;2023-05-10T01:21:33;23.50;55.90
40323;DHT22;26030;51.164;17.100;2023-05-10T01:27:12;23.40;55.70
40323;DHT22;26030;51.164;17.100;2023-05-10T01:37:52;23.40;55.10
40323;DHT22;26030;51.164;17.100;2023-05-10T01:43:10;23.50;55.10
40323;DHT22;26030;51.164;17.100;2023-05-10T01:48:20;23.50;55.10
40323;DHT22;26030;51.164;17.100;2023-05-10T01:53:25;23.50;55.50
40323;DHT22;26030;51.164;17.100;2023-05-10T01:58:31;23.60;56.20
40323;DHT22;26030;51.164;17.100;2023-05-10T02:03:38;23.70;55.80
40323;DHT22;26030;51.164;17.100;2023-05-10T02:08:46;23.70;55.60
40323;DHT22;26030;51.164;17.100;2023-05-10T02:13:52;23.70;55.30
40323;DHT22;26030;51.164;17.100;2023-05-10T02:19:03;23.70;55.80
40323;DHT22;26030;51.164;17.100;2023-05-10T02:24:08;23.70;55.30
40323;DHT22;26030;51.164;17.100;2023-05-10T02:29:13;23.70;55.40
40323;DHT22;26030;51.164;17.100;2023-05-10T02:34:20;23.70;55.40
40323;DHT22;26030;51.164;17.100;2023-05-10T02:39:26;23.70;55.50
40323;DHT22;26030;51.164;17.100;2023-05-10T02:44:34;23.70;55.60
40323;DHT22;26030;51.164;17.100;2023-05-10T02:49:40;23.70;55.30
40323;DHT22;26030;51.164;17.100;2023-05-10T02:54:46;23.70;54.80
40323;DHT22;26030;51.164;17.100;2023-05-10T02:59:54;23.70;54.60
40323;DHT22;26030;51.164;17.100;2023-05-10T03:04:59;23.70;54.70
40323;DHT22;26030;51.164;17.100;2023-05-10T03:10:04;23.70;54.60
40323;DHT22;26030;51.164;17.100;2023-05-10T03:20:46;23.60;55.00
40323;DHT22;26030;51.164;17.100;2023-05-10T03:25:52;23.60;54.70
40323;DHT22;26030;51.164;17.100;2023-05-10T03:30:56;23.60;55.00
40323;DHT22;26030;51.164;17.100;2023-05-10T03:36:02;23.60;55.20
40323;DHT22;26030;51.164;17.100;2023-05-10T03:41:07;23.60;55.00
40323;DHT22;26030;51.164;17.100;2023-05-10T03:46:11;23.60;55.60
40323;DHT22;26030;51.164;17.100;2023-05-10T03:51:16;23.70;55.40
40323;DHT22;26030;51.164;17.100;2023-05-10T03:56:20;23.80;54.60
40323;DHT22;26030;51.164;17.100;2023-05-10T04:01:24;23.80;54.50
40323;DHT22;26030;51.164;17.100;2023-05-10T04:06:29;23.90;54.40
40323;DHT22;26030;51.164;17.100;2023-05-10T04:11:34;23.90;54.30
40323;DHT22;26030;51.164;17.100;2023-05-10T04:16:38;23.90;54.90
40323;DHT22;26030;51.164;17.100;2023-05-10T04:21:42;23.80;54.60
40323;DHT22;26030;51.164;17.100;2023-05-10T04:26:46;23.90;54.90
40323;DHT22;26030;51.164;17.100;2023-05-10T04:31:51;23.80;54.30
40323;DHT22;26030;51.164;17.100;2023-05-10T04:36:55;23.90;54.40
40323;DHT22;26030;51.164;17.100;2023-05-10T04:42:00;23.80;54.60
40323;DHT22;26030;51.164;17.100;2023-05-10T04:47:06;23.80;54.20
40323;DHT22;26030;51.164;17.100;2023-05-10T04:52:13;23.80;54.00
40323;DHT22;26030;51.164;17.100;2023-05-10T04:57:18;23.80;54.00
40323;DHT22;26030;51.164;17.100;2023-05-10T05:02:23;23.70;54.10
40323;DHT22;26030;51.164;17.100;2023-05-10T05:07:27;23.70;53.80
40323;DHT22;26030;51.164;17.100;2023-05-10T05:12:31;23.70;53.70
40323;DHT22;26030;51.164;17.100;2023-05-10T05:17:35;23.70;53.70
40323;DHT22;26030;51.164;17.100;2023-05-10T05:22:40;23.80;53.30
40323;DHT22;26030;51.164;17.100;2023-05-10T05:27:44;23.90;53.10
40323;DHT22;26030;51.164;17.100;2023-05-10T05:32:49;23.90;53.30
40323;DHT22;26030;51.164;17.100;2023-05-10T05:37:53;23.80;53.50
40323;DHT22;26030;51.164;17.100;2023-05-10T05:42:57;23.80;53.90
40323;DHT22;26030;51.164;17.100;2023-05-10T05:48:02;23.70;53.80
40323;DHT22;26030;51.164;17.100;2023-05-10T05:53:06;23.60;53.50
40323;DHT22;26030;51.164;17.100;2023-05-10T05:58:10;23.70;53.40
40323;DHT22;26030;51.164;17.100;2023-05-10T06:03:14;23.60;53.60
40323;DHT22;26030;51.164;17.100;2023-05-10T06:08:19;23.70;53.50
40323;DHT22;26030;51.164;17.100;2023-05-10T06:13:25;23.70;53.70
40323;DHT22;26030;51.164;17.100;2023-05-10T06:18:36;23.70;53.90
40323;DHT22;26030;51.164;17.100;2023-05-10T06:23:40;23.70;54.00
40323;DHT22;26030;51.164;17.100;2023-05-10T06:28:44;23.70;52.80
40323;DHT22;26030;51.164;17.100;2023-05-10T06:34:12;23.70;52.90
40323;DHT22;26030;51.164;17.100;2023-05-10T06:39:17;23.70;52.60
40323;DHT22;26030;51.164;17.100;2023-05-10T06:44:21;23.80;54.00
40323;DHT22;26030;51.164;17.100;2023-05-10T06:49:27;23.80;53.30
40323;DHT22;26030;51.164;17.100;2023-05-10T06:54:31;23.70;53.10
40323;DHT22;26030;51.164;17.100;2023-05-10T06:59:35;23.80;51.70
40323;DHT22;26030;51.164;17.100;2023-05-10T07:04:40;23.80;51.90
40323;DHT22;26030;51.164;17.100;2023-05-10T07:09:44;23.60;51.30
40323;DHT22;26030;51.164;17.100;2023-05-10T07:14:49;23.80;50.70
40323;DHT22;26030;51.164;17.100;2023-05-10T07:19:53;23.40;47.80
40323;DHT22;26030;51.164;17.100;2023-05-10T07:24:57;23.40;49.20
40323;DHT22;26030;51.164;17.100;2023-05-10T07:30:02;23.40;49.50
40323;DHT22;26030;51.164;17.100;2023-05-10T07:35:06;23.40;49.70
40323;DHT22;26030;51.164;17.100;2023-05-10T07:40:11;23.40;50.10
40323;DHT22;26030;51.164;17.100;2023-05-10T07:45:15;23.40;50.20
40323;DHT22;26030;51.164;17.100;2023-05-10T07:50:19;23.40;50.30
40323;DHT22;26030;51.164;17.100;2023-05-10T07:55:24;23.50;50.80
40323;DHT22;26030;51.164;17.100;2023-05-10T08:00:30;23.60;50.30
40323;DHT22;26030;51.164;17.100;2023-05-10T08:05:35;23.60;50.30
40323;DHT22;26030;51.164;17.100;2023-05-10T08:10:39;23.50;50.50
40323;DHT22;26030;51.164;17.100;2023-05-10T08:15:43;23.50;50.60
40323;DHT22;26030;51.164;17.100;2023-05-10T08:20:47;23.50;51.00
40323;DHT22;26030;51.164;17.100;2023-05-10T08:25:51;23.50;50.60
40323;DHT22;26030;51.164;17.100;2023-05-10T08:30:56;23.50;50.80
40323;DHT22;26030;51.164;17.100;2023-05-10T08:36:00;23.50;50.90
40323;DHT22;26030;51.164;17.100;2023-05-10T08:41:04;23.50;51.00
40323;DHT22;26030;51.164;17.100;2023-05-10T08:46:09;23.50;50.70
40323;DHT22;26030;51.164;17.100;2023-05-10T08:51:17;23.50;51.10
40323;DHT22;26030;51.164;17.100;2023-05-10T08:56:25;23.50;51.40
40323;DHT22;26030;51.164;17.100;2023-05-10T09:01:31;23.50;54.40
40323;DHT22;26030;51.164;17.100;2023-05-10T09:06:36;23.60;55.10
40323;DHT22;26030;51.164;17.100;2023-05-10T09:11:40;23.60;55.10
40323;DHT22;26030;51.164;17.100;2023-05-10T09:16:45;23.70;53.80
40323;DHT22;26030;51.164;17.100;2023-05-10T09:21:50;23.70;53.40
40323;DHT22;26030;51.164;17.100;2023-05-10T09:26:54;23.80;53.20
40323;DHT22;26030;51.164;17.100;2023-05-10T09:32:01;23.80;52.90
40323;DHT22;26030;51.164;17.100;2023-05-10T09:37:05;23.80;52.80
40323;DHT22;26030;51.164;17.100;2023-05-10T09:42:10;23.80;52.60
40323;DHT22;26030;51.164;17.100;2023-05-10T09:47:17;23.70;52.10
40323;DHT22;26030;51.164;17.100;2023-05-10T09:52:25;23.60;51.70
40323;DHT22;26030;51.164;17.100;2023-05-10T09:57:29;23.60;51.10
40323;DHT22;26030;51.164;17.100;2023-05-10T10:02:37;23.70;51.30
40323;DHT22;26030;51.164;17.100;2023-05-10T10:07:41;23.70;51.50
40323;DHT22;26030;51.164;17.100;2023-05-10T10:12:46;23.70;51.50
40323;DHT22;26030;51.164;17.100;2023-05-10T10:17:50;23.70;51.70
40323;DHT22;26030;51.164;17.100;2023-05-10T10:22:55;23.70;51.60
40323;DHT22;26030;51.164;17.100;2023-05-10T10:28:21;23.70;51.80
40323;DHT22;26030;51.164;17.100;2023-05-10T10:33:33;23.80;51.50
40323;DHT22;26030;51.164;17.100;2023-05-10T10:43:55;23.90;51.90
40323;DHT22;26030;51.164;17.100;2023-05-10T10:49:33;24.00;51.30
40323;DHT22;26030;51.164;17.100;2023-05-10T10:54:49;24.00;51.20
40323;DHT22;26030;51.164;17.100;2023-05-10T11:05:40;24.00;53.30
40323;DHT22;26030;51.164;17.100;2023-05-10T11:16:13;24.00;53.70
40323;DHT22;26030;51.164;17.100;2023-05-10T11:21:28;24.10;53.40
40323;DHT22;26030;51.164;17.100;2023-05-10T11:26:34;24.10;52.80
40323;DHT22;26030;51.164;17.100;2023-05-10T11:31:42;24.20;53.10
40323;DHT22;26030;51.164;17.100;2023-05-10T11:36:50;24.20;52.70
40323;DHT22;26030;51.164;17.100;2023-05-10T11:41:57;24.30;52.70
40323;DHT22;26030;51.164;17.100;2023-05-10T11:47:02;24.30;53.00
40323;DHT22;26030;51.164;17.100;2023-05-10T11:52:07;24.30;52.30
40323;DHT22;26030;51.164;17.100;2023-05-10T11:57:12;24.30;52.20
40323;DHT22;26030;51.164;17.100;2023-05-10T12:02:16;24.30;52.20
40323;DHT22;26030;51.164;17.100;2023-05-10T12:07:20;24.30;52.20
40323;DHT22;26030;51.164;17.100;2023-05-10T12:12:24;24.30;51.70
40323;DHT22;26030;51.164;17.100;2023-05-10T12:17:28;24.40;52.00
40323;DHT22;26030;51.164;17.100;2023-05-10T12:22:33;24.40;51.90
40323;DHT22;26030;51.164;17.100;2023-05-10T12:27:38;24.30;49.30
40323;DHT22;26030;51.164;17.100;2023-05-10T12:32:43;24.10;51.00
40323;DHT22;26030;51.164;17.100;2023-05-10T12:37:47;24.30;51.20
40323;DHT22;26030;51.164;17.100;2023-05-10T12:42:52;24.50;50.50
40323;DHT22;26030;51.164;17.100;2023-05-10T12:47:56;24.40;50.80
40323;DHT22;26030;51.164;17.100;2023-05-10T12:53:00;24.30;51.00
40323;DHT22;26030;51.164;17.100;2023-05-10T12:58:04;24.40;50.80
40323;DHT22;26030;51.164;17.100;2023-05-10T13:03:08;24.50;50.70
40323;DHT22;26030;51.164;17.100;2023-05-10T13:08:13;24.50;50.40
40323;DHT22;26030;51.164;17.100;2023-05-10T13:13:17;24.40;50.90
40323;DHT22;26030;51.164;17.100;2023-05-10T13:18:21;24.40;50.80
40323;DHT22;26030;51.164;17.100;2023-05-10T13:23:26;24.50;50.80
40323;DHT22;26030;51.164;17.100;2023-05-10T13:28:30;24.40;50.80
40323;DHT22;26030;51.164;17.100;2023-05-10T13:33:34;24.40;50.90
40323;DHT22;26030;51.164;17.100;2023-05-10T13:38:38;24.40;50.40
40323;DHT22;26030;51.164;17.100;2023-05-10T13:43:42;24.40;50.90
40323;DHT22;26030;51.164;17.100;2023-05-10T13:48:46;24.40;50.90
40323;DHT22;26030;51.164;17.100;2023-05-10T13:53:50;24.30;51.00
40323;DHT22;26030;51.164;17.100;2023-05-10T13:58:58;24.30;51.00
40323;DHT22;26030;51.164;17.100;2023-05-10T14:04:02;24.30;51.10
40323;DHT22;26030;51.164;17.100;2023-05-10T14:09:07;24.20;51.10
40323;DHT22;26030;51.164;17.100;2023-05-10T14:14:12;24.20;51.50
40323;DHT22;26030;51.164;17.100;2023-05-10T14:19:16;24.20;51.50
40323;DHT22;26030;51.164;17.100;2023-05-10T14:24:21;24.30;51.00
40323;DHT22;26030;51.164;17.100;2023-05-10T14:29:25;24.20;51.10
40323;DHT22;26030;51.164;17.100;2023-05-10T14:34:30;24.20;51.00
40323;DHT22;26030;51.164;17.100;2023-05-10T14:39:34;24.20;51.40
40323;DHT22;26030;51.164;17.100;2023-05-10T14:44:38;24.20;51.60
40323;DHT22;26030;51.164;17.100;2023-05-10T14:49:43;24.10;51.10
40323;DHT22;26030;51.164;17.100;2023-05-10T14:54:46;24.10;52.00
40323;DHT22;26030;51.164;17.100;2023-05-10T14:59:51;24.10;51.00
40323;DHT22;26030;51.164;17.100;2023-05-10T15:04:55;24.10;51.10
40323;DHT22;26030;51.164;17.100;2023-05-10T15:10:01;24.10;51.30
40323;DHT22;26030;51.164;17.100;2023-05-10T15:15:06;24.10;50.70
40323;DHT22;26030;51.164;17.100;2023-05-10T15:20:10;24.20;50.80
40323;DHT22;26030;51.164;17.100;2023-05-10T15:25:15;24.10;51.70
40323;DHT22;26030;51.164;17.100;2023-05-10T15:30:19;24.20;50.70
40323;DHT22;26030;51.164;17.100;2023-05-10T15:35:25;24.10;50.90
40323;DHT22;26030;51.164;17.100;2023-05-10T15:40:31;24.20;50.60
40323;DHT22;26030;51.164;17.100;2023-05-10T15:45:38;24.20;50.90
40323;DHT22;26030;51.164;17.100;2023-05-10T15:50:42;24.20;50.70
40323;DHT22;26030;51.164;17.100;2023-05-10T15:55:45;24.20;49.80
40323;DHT22;26030;51.164;17.100;2023-05-10T16:00:50;24.20;50.60
40323;DHT22;26030;51.164;17.100;2023-05-10T16:05:54;24.40;50.20
40323;DHT22;26030;51.164;17.100;2023-05-10T16:10:58;24.40;50.60
40323;DHT22;26030;51.164;17.100;2023-05-10T16:16:03;24.40;49.70
40323;DHT22;26030;51.164;17.100;2023-05-10T16:21:07;24.30;50.10
40323;DHT22;26030;51.164;17.100;2023-05-10T16:26:12;24.40;49.50
40323;DHT22;26030;51.164;17.100;2023-05-10T16:31:16;24.30;51.50
40323;DHT22;26030;51.164;17.100;2023-05-10T16:36:24;24.30;52.70
40323;DHT22;26030;51.164;17.100;2023-05-10T16:47:26;24.40;54.10
40323;DHT22;26030;51.164;17.100;2023-05-10T16:52:31;24.50;54.30
40323;DHT22;26030;51.164;17.100;2023-05-10T16:57:35;24.50;53.40
40323;DHT22;26030;51.164;17.100;2023-05-10T17:02:39;24.50;53.30
40323;DHT22;26030;51.164;17.100;2023-05-10T17:07:44;24.50;53.30
40323;DHT22;26030;51.164;17.100;2023-05-10T17:12:49;24.50;52.90
40323;DHT22;26030;51.164;17.100;2023-05-10T17:17:53;24.30;52.70
40323;DHT22;26030;51.164;17.100;2023-05-10T17:22:58;24.30;52.20
40323;DHT22;26030;51.164;17.100;2023-05-10T17:28:03;24.30;52.00
40323;DHT22;26030;51.164;17.100;2023-05-10T17:33:07;24.30;51.80
40323;DHT22;26030;51.164;17.100;2023-05-10T17:38:11;24.40;51.70
40323;DHT22;26030;51.164;17.100;2023-05-10T17:43:15;24.40;51.00
40323;DHT22;26030;51.164;17.100;2023-05-10T17:48:19;24.30;51.10
40323;DHT22;26030;51.164;17.100;2023-05-10T17:53:23;24.50;50.90
40323;DHT22;26030;51.164;17.100;2023-05-10T17:58:27;24.30;51.00
40323;DHT22;26030;51.164;17.100;2023-05-10T18:03:31;24.20;51.30
40323;DHT22;26030;51.164;17.100;2023-05-10T18:08:35;24.30;51.20
40323;DHT22;26030;51.164;17.100;2023-05-10T18:13:39;24.30;51.80
40323;DHT22;26030;51.164;17.100;2023-05-10T18:18:44;24.30;51.30
40323;DHT22;26030;51.164;17.100;2023-05-10T18:23:48;24.20;52.50
40323;DHT22;26030;51.164;17.100;2023-05-10T18:28:52;24.30;52.00
40323;DHT22;26030;51.164;17.100;2023-05-10T18:33:56;24.50;51.80
40323;DHT22;26030;51.164;17.100;2023-05-10T18:39:01;24.50;51.90
40323;DHT22;26030;51.164;17.100;2023-05-10T18:44:06;24.40;53.20
40323;DHT22;26030;51.164;17.100;2023-05-10T18:49:11;24.30;53.60
40323;DHT22;26030;51.164;17.100;2023-05-10T18:54:16;24.20;53.30
40323;DHT22;26030;51.164;17.100;2023-05-10T18:59:21;24.20;53.00
40323;DHT22;26030;51.164;17.100;2023-05-10T19:04:27;24.30;53.00
40323;DHT22;26030;51.164;17.100;2023-05-10T19:09:31;24.30;52.50
40323;DHT22;26030;51.164;17.100;2023-05-10T19:14:36;24.30;52.10
40323;DHT22;26030;51.164;17.100;2023-05-10T19:19:42;24.40;52.70
40323;DHT22;26030;51.164;17.100;2023-05-10T19:24:47;24.30;52.50
40323;DHT22;26030;51.164;17.100;2023-05-10T19:29:52;24.30;52.70
40323;DHT22;26030;51.164;17.100;2023-05-10T19:34:58;24.30;52.60
40323;DHT22;26030;51.164;17.100;2023-05-10T19:40:04;24.20;53.20
40323;DHT22;26030;51.164;17.100;2023-05-10T19:45:14;24.20;53.80
40323;DHT22;26030;51.164;17.100;2023-05-10T19:50:19;24.20;53.90
40323;DHT22;26030;51.164;17.100;2023-05-10T19:55:28;24.30;53.30
40323;DHT22;26030;51.164;17.100;2023-05-10T20:00:33;24.30;53.20
40323;DHT22;26030;51.164;17.100;2023-05-10T20:05:39;24.20;53.50
40323;DHT22;26030;51.164;17.100;2023-05-10T20:10:44;24.10;53.70
40323;DHT22;26030;51.164;17.100;2023-05-10T20:15:48;24.10;53.30
40323;DHT22;26030;51.164;17.100;2023-05-10T20:20:53;24.10;53.20
40323;DHT22;26030;51.164;17.100;2023-05-10T20:25:58;24.00;53.80
40323;DHT22;26030;51.164;17.100;2023-05-10T20:31:03;24.00;53.40
40323;DHT22;26030;51.164;17.100;2023-05-10T20:36:09;24.00;54.00
40323;DHT22;26030;51.164;17.100;2023-05-10T20:41:15;24.10;54.20
40323;DHT22;26030;51.164;17.100;2023-05-10T20:46:19;24.10;54.10
40323;DHT22;26030;51.164;17.100;2023-05-10T20:51:24;24.00;54.40
40323;DHT22;26030;51.164;17.100;2023-05-10T20:56:28;23.90;55.00
40323;DHT22;26030;51.164;17.100;2023-05-10T21:01:32;23.90;54.10
40323;DHT22;26030;51.164;17.100;2023-05-10T21:06:36;23.90;54.10
40323;DHT22;26030;51.164;17.100;2023-05-10T21:11:40;23.90;54.00
40323;DHT22;26030;51.164;17.100;2023-05-10T21:16:44;23.90;55.60
40323;DHT22;26030;51.164;17.100;2023-05-10T21:21:49;23.80;55.20
40323;DHT22;26030;51.164;17.100;2023-05-10T21:26:53;23.90;55.50
40323;DHT22;26030;51.164;17.100;2023-05-10T21:31:57;23.90;55.10
40323;DHT22;26030;51.164;17.100;2023-05-10T21:37:01;23.90;55.60
40323;DHT22;26030;51.164;17.100;2023-05-10T21:42:05;23.80;55.40
40323;DHT22;26030;51.164;17.100;2023-05-10T21:47:09;23.80;55.40
40323;DHT22;26030;51.164;17.100;2023-05-10T21:52:13;23.80;55.70
40323;DHT22;26030;51.164;17.100;2023-05-10T21:57:18;23.70;55.30
40323;DHT22;26030;51.164;17.100;2023-05-10T22:02:24;23.70;55.40
40323;DHT22;26030;51.164;17.100;2023-05-10T22:07:31;23.70;55.40
40323;DHT22;26030;51.164;17.100;2023-05-10T22:12:36;23.70;55.40
40323;DHT22;26030;51.164;17.100;2023-05-10T22:17:40;23.70;55.20
40323;DHT22;26030;51.164;17.100;2023-05-10T22:22:44;23.70;55.30
40323;DHT22;26030;51.164;17.100;2023-05-10T22:27:48;23.70;55.50
40323;DHT22;26030;51.164;17.100;2023-05-10T22:32:52;23.70;55.00
40323;DHT22;26030;51.164;17.100;2023-05-10T22:37:56;23.70;56.00
40323;DHT22;26030;51.164;17.100;2023-05-10T22:43:00;23.70;55.10
40323;DHT22;26030;51.164;17.100;2023-05-10T22:48:05;23.70;55.30
40323;DHT22;26030;51.164;17.100;2023-05-10T22:53:11;23.70;55.10
40323;DHT22;26030;51.164;17.100;2023-05-10T22:58:15;23.70;55.10
40323;DHT22;26030;51.164;17.100;2023-05-10T23:03:20;23.60;55.00
40323;DHT22;26030;51.164;17.100;2023-05-10T23:08:24;23.60;55.10
40323;DHT22;26030;51.164;17.100;2023-05-10T23:13:29;23.60;55.10
40323;DHT22;26030;51.164;17.100;2023-05-10T23:18:32;23.60;54.90
40323;DHT22;26030;51.164;17.100;2023-05-10T23:23:37;23.60;55.10
40323;DHT22;26030;51.164;17.100;2023-05-10T23:28:41;23.50;55.50
40323;DHT22;26030;51.164;17.100;2023-05-10T23:33:45;23.50;55.00
40323;DHT22;26030;51.164;17.100;2023-05-10T23:38:49;23.50;55.10
40323;DHT22;26030;51.164;17.100;2023-05-10T23:43:53;23.50;55.10
40323;DHT22;26030;51.164;17.100;2023-05-10T23:48:57;23.50;55.00
40323;DHT22;26030;51.164;17.100;2023-05-10T23:54:01;23.50;54.60
40323;DHT22;26030;51.164;17.100;2023-05-10T23:59:05;23.60;54.70
